sensor_id;sensor_type;location;lat;lon;timestamp;P1;durP1;ratioP1;P2;durP2;ratioP2
17494;SDS011;8864;51.970;4.614;2022-10-22T00:01:50;3.08;;;1.30;;
17494;SDS011;8864;51.970;4.614;2022-10-22T00:04:18;4.05;;;1.45;;
17494;SDS011;8864;51.970;4.614;2022-10-22T00:06:45;5.00;;;1.25;;
17494;SDS011;8864;51.970;4.614;2022-10-22T00:09:12;4.88;;;1.33;;
17494;SDS011;8864;51.970;4.614;2022-10-22T00:11:39;3.58;;;1.23;;
17494;SDS011;8864;51.970;4.614;2022-10-22T00:14:10;2.67;;;1.20;;
17494;SDS011;8864;51.970;4.614;2022-10-22T00:16:37;2.03;;;1.08;;
17494;SDS011;8864;51.970;4.614;2022-10-22T00:19:04;2.85;;;1.10;;
17494;SDS011;8864;51.970;4.614;2022-10-22T00:21:33;2.92;;;1.30;;
17494;SDS011;8864;51.970;4.614;2022-10-22T00:23:59;4.55;;;1.20;;
17494;SDS011;8864;51.970;4.614;2022-10-22T00:26:26;2.65;;;1.42;;
17494;SDS011;8864;51.970;4.614;2022-10-22T00:28:53;2.70;;;1.35;;
17494;SDS011;8864;51.970;4.614;2022-10-22T00:31:21;3.20;;;1.25;;
17494;SDS011;8864;51.970;4.614;2022-10-22T00:33:48;3.25;;;1.40;;
17494;SDS011;8864;51.970;4.614;2022-10-22T00:36:15;4.65;;;1.30;;
17494;SDS011;8864;51.970;4.614;2022-10-22T00:38:42;2.72;;;1.27;;
17494;SDS011;8864;51.970;4.614;2022-10-22T00:41:09;1.95;;;1.20;;
17494;SDS011;8864;51.970;4.614;2022-10-22T00:46:18;2.78;;;1.13;;
17494;SDS011;8864;51.970;4.614;2022-10-22T00:48:47;3.78;;;1.30;;
17494;SDS011;8864;51.970;4.614;2022-10-22T00:51:14;3.03;;;1.10;;
17494;SDS011;8864;51.970;4.614;2022-10-22T00:53:42;4.63;;;1.17;;
17494;SDS011;8864;51.970;4.614;2022-10-22T00:56:13;2.67;;;1.27;;
17494;SDS011;8864;51.970;4.614;2022-10-22T00:58:40;2.67;;;1.30;;
17494;SDS011;8864;51.970;4.614;2022-10-22T01:01:12;2.40;;;1.05;;
17494;SDS011;8864;51.970;4.614;2022-10-22T01:03:41;3.40;;;1.20;;
17494;SDS011;8864;51.970;4.614;2022-10-22T01:06:11;2.45;;;1.10;;
17494;SDS011;8864;51.970;4.614;2022-10-22T01:08:45;2.03;;;1.20;;
17494;SDS011;8864;51.970;4.614;2022-10-22T01:11:19;3.22;;;1.40;;
17494;SDS011;8864;51.970;4.614;2022-10-22T01:13:57;4.40;;;1.30;;
17494;SDS011;8864;51.970;4.614;2022-10-22T01:16:31;2.47;;;1.20;;
17494;SDS011;8864;51.970;4.614;2022-10-22T01:19:09;4.78;;;1.25;;
17494;SDS011;8864;51.970;4.614;2022-10-22T01:21:56;6.25;;;1.52;;
17494;SDS011;8864;51.970;4.614;2022-10-22T01:24:34;2.80;;;1.30;;
17494;SDS011;8864;51.970;4.614;2022-10-22T01:27:12;2.45;;;1.00;;
17494;SDS011;8864;51.970;4.614;2022-10-22T01:29:51;4.05;;;1.27;;
17494;SDS011;8864;51.970;4.614;2022-10-22T01:32:24;2.17;;;1.23;;
17494;SDS011;8864;51.970;4.614;2022-10-22T01:34:53;3.63;;;1.10;;
17494;SDS011;8864;51.970;4.614;2022-10-22T01:37:24;3.67;;;1.35;;
17494;SDS011;8864;51.970;4.614;2022-10-22T01:39:54;3.50;;;1.15;;
17494;SDS011;8864;51.970;4.614;2022-10-22T01:42:22;2.80;;;1.10;;
17494;SDS011;8864;51.970;4.614;2022-10-22T01:44:51;3.75;;;1.48;;
17494;SDS011;8864;51.970;4.614;2022-10-22T01:47:20;3.85;;;0.98;;
17494;SDS011;8864;51.970;4.614;2022-10-22T01:52:57;5.90;;;1.10;;
17494;SDS011;8864;51.970;4.614;2022-10-22T01:55:35;3.47;;;1.40;;
17494;SDS011;8864;51.970;4.614;2022-10-22T01:58:12;3.47;;;1.20;;
17494;SDS011;8864;51.970;4.614;2022-10-22T02:00:49;6.72;;;1.52;;
17494;SDS011;8864;51.970;4.614;2022-10-22T02:03:23;3.88;;;1.30;;
17494;SDS011;8864;51.970;4.614;2022-10-22T02:05:54;2.05;;;1.10;;
17494;SDS011;8864;51.970;4.614;2022-10-22T02:08:26;4.28;;;1.50;;
17494;SDS011;8864;51.970;4.614;2022-10-22T02:10:56;2.42;;;1.15;;
17494;SDS011;8864;51.970;4.614;2022-10-22T02:13:25;3.88;;;1.17;;
17494;SDS011;8864;51.970;4.614;2022-10-22T02:15:56;2.88;;;1.33;;
17494;SDS011;8864;51.970;4.614;2022-10-22T02:18:25;3.05;;;1.30;;
17494;SDS011;8864;51.970;4.614;2022-10-22T02:20:56;5.60;;;1.45;;
17494;SDS011;8864;51.970;4.614;2022-10-22T02:23:26;2.92;;;1.23;;
17494;SDS011;8864;51.970;4.614;2022-10-22T02:25:54;4.50;;;1.20;;
17494;SDS011;8864;51.970;4.614;2022-10-22T02:28:28;3.13;;;1.42;;
17494;SDS011;8864;51.970;4.614;2022-10-22T02:31:08;2.47;;;1.10;;
17494;SDS011;8864;51.970;4.614;2022-10-22T02:33:46;3.28;;;1.40;;
17494;SDS011;8864;51.970;4.614;2022-10-22T02:36:16;2.92;;;1.17;;
17494;SDS011;8864;51.970;4.614;2022-10-22T02:38:44;2.17;;;0.93;;
17494;SDS011;8864;51.970;4.614;2022-10-22T02:41:13;4.05;;;1.25;;
17494;SDS011;8864;51.970;4.614;2022-10-22T02:43:41;2.72;;;1.10;;
17494;SDS011;8864;51.970;4.614;2022-10-22T02:46:10;2.08;;;1.02;;
17494;SDS011;8864;51.970;4.614;2022-10-22T02:48:37;2.75;;;1.15;;
17494;SDS011;8864;51.970;4.614;2022-10-22T02:51:04;2.25;;;1.17;;
17494;SDS011;8864;51.970;4.614;2022-10-22T02:53:31;3.42;;;0.90;;
17494;SDS011;8864;51.970;4.614;2022-10-22T02:55:58;5.32;;;1.27;;
17494;SDS011;8864;51.970;4.614;2022-10-22T02:58:25;2.83;;;1.10;;
17494;SDS011;8864;51.970;4.614;2022-10-22T03:00:52;4.43;;;1.20;;
17494;SDS011;8864;51.970;4.614;2022-10-22T03:03:22;2.00;;;0.90;;
17494;SDS011;8864;51.970;4.614;2022-10-22T03:05:49;2.22;;;1.20;;
17494;SDS011;8864;51.970;4.614;2022-10-22T03:08:17;2.45;;;1.38;;
17494;SDS011;8864;51.970;4.614;2022-10-22T03:10:44;3.58;;;1.30;;
17494;SDS011;8864;51.970;4.614;2022-10-22T03:13:11;3.00;;;1.25;;
17494;SDS011;8864;51.970;4.614;2022-10-22T03:15:37;4.43;;;1.20;;
17494;SDS011;8864;51.970;4.614;2022-10-22T03:18:04;3.70;;;1.00;;
17494;SDS011;8864;51.970;4.614;2022-10-22T03:20:32;3.88;;;1.20;;
17494;SDS011;8864;51.970;4.614;2022-10-22T03:22:59;2.08;;;1.10;;
17494;SDS011;8864;51.970;4.614;2022-10-22T03:25:27;3.58;;;1.20;;
17494;SDS011;8864;51.970;4.614;2022-10-22T03:27:59;5.13;;;1.33;;
17494;SDS011;8864;51.970;4.614;2022-10-22T03:30:27;5.53;;;1.10;;
17494;SDS011;8864;51.970;4.614;2022-10-22T03:32:54;3.75;;;1.27;;
17494;SDS011;8864;51.970;4.614;2022-10-22T03:35:21;2.90;;;1.20;;
17494;SDS011;8864;51.970;4.614;2022-10-22T03:37:49;3.67;;;1.00;;
17494;SDS011;8864;51.970;4.614;2022-10-22T03:40:16;3.72;;;0.95;;
17494;SDS011;8864;51.970;4.614;2022-10-22T03:42:56;3.55;;;1.10;;
17494;SDS011;8864;51.970;4.614;2022-10-22T03:45:24;2.83;;;1.10;;
17494;SDS011;8864;51.970;4.614;2022-10-22T03:47:50;2.33;;;1.05;;
17494;SDS011;8864;51.970;4.614;2022-10-22T03:50:17;1.42;;;1.00;;
17494;SDS011;8864;51.970;4.614;2022-10-22T03:52:44;4.00;;;1.30;;
17494;SDS011;8864;51.970;4.614;2022-10-22T03:55:12;2.15;;;0.95;;
17494;SDS011;8864;51.970;4.614;2022-10-22T03:57:47;4.95;;;1.10;;
17494;SDS011;8864;51.970;4.614;2022-10-22T04:03:16;7.78;;;1.13;;
17494;SDS011;8864;51.970;4.614;2022-10-22T04:05:43;3.25;;;1.10;;
17494;SDS011;8864;51.970;4.614;2022-10-22T04:08:17;4.47;;;1.33;;
17494;SDS011;8864;51.970;4.614;2022-10-22T04:10:52;11.05;;;1.20;;
17494;SDS011;8864;51.970;4.614;2022-10-22T04:15:50;3.17;;;1.10;;
17494;SDS011;8864;51.970;4.614;2022-10-22T04:18:17;2.30;;;1.20;;
17494;SDS011;8864;51.970;4.614;2022-10-22T04:20:47;4.43;;;1.02;;
17494;SDS011;8864;51.970;4.614;2022-10-22T04:23:25;5.50;;;1.63;;
17494;SDS011;8864;51.970;4.614;2022-10-22T04:25:57;5.78;;;1.77;;
17494;SDS011;8864;51.970;4.614;2022-10-22T04:28:39;3.88;;;1.10;;
17494;SDS011;8864;51.970;4.614;2022-10-22T04:31:51;4.30;;;1.23;;
17494;SDS011;8864;51.970;4.614;2022-10-22T04:34:17;3.15;;;1.30;;
17494;SDS011;8864;51.970;4.614;2022-10-22T04:36:53;3.92;;;1.20;;
17494;SDS011;8864;51.970;4.614;2022-10-22T04:39:20;2.50;;;1.00;;
17494;SDS011;8864;51.970;4.614;2022-10-22T04:41:48;4.95;;;1.10;;
17494;SDS011;8864;51.970;4.614;2022-10-22T04:44:15;3.72;;;1.00;;
17494;SDS011;8864;51.970;4.614;2022-10-22T04:46:42;5.20;;;1.73;;
17494;SDS011;8864;51.970;4.614;2022-10-22T04:49:09;4.57;;;0.90;;
17494;SDS011;8864;51.970;4.614;2022-10-22T04:51:38;3.00;;;1.30;;
17494;SDS011;8864;51.970;4.614;2022-10-22T04:54:06;7.28;;;1.17;;
17494;SDS011;8864;51.970;4.614;2022-10-22T04:56:39;5.43;;;1.30;;
17494;SDS011;8864;51.970;4.614;2022-10-22T04:59:07;3.33;;;1.10;;
17494;SDS011;8864;51.970;4.614;2022-10-22T05:01:37;2.88;;;1.50;;
17494;SDS011;8864;51.970;4.614;2022-10-22T05:04:05;3.38;;;1.17;;
17494;SDS011;8864;51.970;4.614;2022-10-22T05:06:34;2.83;;;1.05;;
17494;SDS011;8864;51.970;4.614;2022-10-22T05:09:03;2.97;;;1.25;;
17494;SDS011;8864;51.970;4.614;2022-10-22T05:11:32;1.88;;;1.00;;
17494;SDS011;8864;51.970;4.614;2022-10-22T05:14:14;4.85;;;1.08;;
17494;SDS011;8864;51.970;4.614;2022-10-22T05:16:42;2.95;;;1.02;;
17494;SDS011;8864;51.970;4.614;2022-10-22T05:19:11;3.00;;;1.15;;
17494;SDS011;8864;51.970;4.614;2022-10-22T05:21:42;1.90;;;1.10;;
17494;SDS011;8864;51.970;4.614;2022-10-22T05:24:09;4.15;;;1.13;;
17494;SDS011;8864;51.970;4.614;2022-10-22T05:26:35;6.45;;;1.20;;
17494;SDS011;8864;51.970;4.614;2022-10-22T05:29:02;2.97;;;1.00;;
17494;SDS011;8864;51.970;4.614;2022-10-22T05:31:41;2.42;;;0.90;;
17494;SDS011;8864;51.970;4.614;2022-10-22T05:34:09;3.20;;;1.00;;
17494;SDS011;8864;51.970;4.614;2022-10-22T05:36:36;4.05;;;0.93;;
17494;SDS011;8864;51.970;4.614;2022-10-22T05:39:04;4.82;;;1.17;;
17494;SDS011;8864;51.970;4.614;2022-10-22T05:41:31;2.03;;;1.00;;
17494;SDS011;8864;51.970;4.614;2022-10-22T05:43:59;4.05;;;1.10;;
17494;SDS011;8864;51.970;4.614;2022-10-22T05:46:28;3.40;;;1.45;;
17494;SDS011;8864;51.970;4.614;2022-10-22T05:48:57;4.32;;;1.15;;
17494;SDS011;8864;51.970;4.614;2022-10-22T05:51:26;3.45;;;1.15;;
17494;SDS011;8864;51.970;4.614;2022-10-22T05:53:55;3.97;;;1.27;;
17494;SDS011;8864;51.970;4.614;2022-10-22T05:56:24;6.05;;;1.42;;
17494;SDS011;8864;51.970;4.614;2022-10-22T05:58:52;5.25;;;1.33;;
17494;SDS011;8864;51.970;4.614;2022-10-22T06:04:17;2.88;;;1.00;;
17494;SDS011;8864;51.970;4.614;2022-10-22T06:06:59;2.63;;;1.13;;
17494;SDS011;8864;51.970;4.614;2022-10-22T06:09:34;3.90;;;1.20;;
17494;SDS011;8864;51.970;4.614;2022-10-22T06:12:01;3.38;;;1.20;;
17494;SDS011;8864;51.970;4.614;2022-10-22T06:14:33;5.35;;;1.30;;
17494;SDS011;8864;51.970;4.614;2022-10-22T06:17:00;6.45;;;1.27;;
17494;SDS011;8864;51.970;4.614;2022-10-22T06:19:28;6.03;;;1.30;;
17494;SDS011;8864;51.970;4.614;2022-10-22T06:21:55;3.47;;;1.05;;
17494;SDS011;8864;51.970;4.614;2022-10-22T06:24:24;3.35;;;0.98;;
17494;SDS011;8864;51.970;4.614;2022-10-22T06:26:51;3.35;;;1.30;;
17494;SDS011;8864;51.970;4.614;2022-10-22T06:29:21;3.53;;;1.05;;
17494;SDS011;8864;51.970;4.614;2022-10-22T06:38:14;2.85;;;1.23;;
17494;SDS011;8864;51.970;4.614;2022-10-22T06:40:43;2.38;;;0.98;;
17494;SDS011;8864;51.970;4.614;2022-10-22T06:43:11;6.45;;;1.30;;
17494;SDS011;8864;51.970;4.614;2022-10-22T06:45:38;4.85;;;1.23;;
17494;SDS011;8864;51.970;4.614;2022-10-22T06:48:08;5.60;;;1.38;;
17494;SDS011;8864;51.970;4.614;2022-10-22T06:50:59;6.40;;;1.38;;
17494;SDS011;8864;51.970;4.614;2022-10-22T06:54:03;2.83;;;0.98;;
17494;SDS011;8864;51.970;4.614;2022-10-22T06:56:30;5.13;;;1.05;;
17494;SDS011;8864;51.970;4.614;2022-10-22T06:58:58;4.78;;;1.00;;
17494;SDS011;8864;51.970;4.614;2022-10-22T07:01:26;5.10;;;1.25;;
17494;SDS011;8864;51.970;4.614;2022-10-22T07:04:02;4.75;;;1.38;;
17494;SDS011;8864;51.970;4.614;2022-10-22T07:06:30;4.85;;;1.50;;
17494;SDS011;8864;51.970;4.614;2022-10-22T07:08:58;3.55;;;1.20;;
17494;SDS011;8864;51.970;4.614;2022-10-22T07:11:32;6.15;;;1.50;;
17494;SDS011;8864;51.970;4.614;2022-10-22T07:14:14;7.82;;;2.00;;
17494;SDS011;8864;51.970;4.614;2022-10-22T07:16:47;9.38;;;1.35;;
17494;SDS011;8864;51.970;4.614;2022-10-22T07:19:14;5.55;;;1.60;;
17494;SDS011;8864;51.970;4.614;2022-10-22T07:21:46;6.78;;;1.30;;
17494;SDS011;8864;51.970;4.614;2022-10-22T07:24:13;5.80;;;1.80;;
17494;SDS011;8864;51.970;4.614;2022-10-22T07:26:47;5.50;;;1.20;;
17494;SDS011;8864;51.970;4.614;2022-10-22T07:29:28;6.28;;;1.45;;
17494;SDS011;8864;51.970;4.614;2022-10-22T07:32:03;7.53;;;1.33;;
17494;SDS011;8864;51.970;4.614;2022-10-22T07:53:16;5.28;;;1.40;;
17494;SDS011;8864;51.970;4.614;2022-10-22T07:56:00;5.30;;;1.63;;
17494;SDS011;8864;51.970;4.614;2022-10-22T07:58:38;7.65;;;1.67;;
17494;SDS011;8864;51.970;4.614;2022-10-22T08:01:22;6.68;;;1.35;;
17494;SDS011;8864;51.970;4.614;2022-10-22T08:04:57;10.27;;;1.90;;
17494;SDS011;8864;51.970;4.614;2022-10-22T08:10:14;6.25;;;1.55;;
17494;SDS011;8864;51.970;4.614;2022-10-22T08:12:41;10.35;;;1.63;;
17494;SDS011;8864;51.970;4.614;2022-10-22T08:15:24;10.55;;;1.73;;
17494;SDS011;8864;51.970;4.614;2022-10-22T08:17:52;14.15;;;2.50;;
17494;SDS011;8864;51.970;4.614;2022-10-22T08:29:23;22.25;;;4.10;;
17494;SDS011;8864;51.970;4.614;2022-10-22T08:31:56;21.85;;;4.10;;
17494;SDS011;8864;51.970;4.614;2022-10-22T08:36:55;27.58;;;4.65;;
17494;SDS011;8864;51.970;4.614;2022-10-22T08:39:23;23.25;;;4.80;;
17494;SDS011;8864;51.970;4.614;2022-10-22T08:45:12;16.77;;;4.55;;
17494;SDS011;8864;51.970;4.614;2022-10-22T08:47:50;30.25;;;4.18;;
17494;SDS011;8864;51.970;4.614;2022-10-22T08:50:41;21.50;;;4.25;;
17494;SDS011;8864;51.970;4.614;2022-10-22T08:53:28;21.27;;;4.70;;
17494;SDS011;8864;51.970;4.614;2022-10-22T08:56:01;23.17;;;4.40;;
17494;SDS011;8864;51.970;4.614;2022-10-22T08:58:32;19.45;;;4.05;;
17494;SDS011;8864;51.970;4.614;2022-10-22T09:01:17;20.42;;;5.00;;
17494;SDS011;8864;51.970;4.614;2022-10-22T09:03:51;14.45;;;3.85;;
17494;SDS011;8864;51.970;4.614;2022-10-22T09:06:24;17.45;;;3.70;;
17494;SDS011;8864;51.970;4.614;2022-10-22T09:08:52;14.93;;;3.78;;
17494;SDS011;8864;51.970;4.614;2022-10-22T09:11:24;12.27;;;3.58;;
17494;SDS011;8864;51.970;4.614;2022-10-22T09:13:54;21.33;;;3.90;;
17494;SDS011;8864;51.970;4.614;2022-10-22T09:25:18;13.50;;;3.72;;
17494;SDS011;8864;51.970;4.614;2022-10-22T09:28:02;10.27;;;3.17;;
17494;SDS011;8864;51.970;4.614;2022-10-22T09:33:27;13.73;;;3.38;;
17494;SDS011;8864;51.970;4.614;2022-10-22T09:41:44;11.82;;;2.80;;
17494;SDS011;8864;51.970;4.614;2022-10-22T09:44:21;9.13;;;3.10;;
17494;SDS011;8864;51.970;4.614;2022-10-22T09:46:51;9.65;;;2.63;;
17494;SDS011;8864;51.970;4.614;2022-10-22T09:49:19;14.07;;;3.08;;
17494;SDS011;8864;51.970;4.614;2022-10-22T09:51:52;12.10;;;3.30;;
17494;SDS011;8864;51.970;4.614;2022-10-22T09:54:21;9.75;;;2.63;;
17494;SDS011;8864;51.970;4.614;2022-10-22T09:57:05;11.73;;;2.60;;
17494;SDS011;8864;51.970;4.614;2022-10-22T09:59:47;8.15;;;2.70;;
17494;SDS011;8864;51.970;4.614;2022-10-22T10:02:23;11.73;;;2.58;;
17494;SDS011;8864;51.970;4.614;2022-10-22T10:05:16;9.63;;;2.10;;
17494;SDS011;8864;51.970;4.614;2022-10-22T10:07:51;8.48;;;2.60;;
17494;SDS011;8864;51.970;4.614;2022-10-22T10:10:18;6.70;;;2.17;;
17494;SDS011;8864;51.970;4.614;2022-10-22T10:16:28;8.68;;;2.28;;
17494;SDS011;8864;51.970;4.614;2022-10-22T10:22:04;8.55;;;2.42;;
17494;SDS011;8864;51.970;4.614;2022-10-22T10:24:46;7.00;;;2.33;;
17494;SDS011;8864;51.970;4.614;2022-10-22T10:27:29;9.63;;;2.60;;
17494;SDS011;8864;51.970;4.614;2022-10-22T10:30:20;7.68;;;2.33;;
17494;SDS011;8864;51.970;4.614;2022-10-22T10:48:01;6.47;;;2.25;;
17494;SDS011;8864;51.970;4.614;2022-10-22T10:51:02;9.98;;;1.90;;
17494;SDS011;8864;51.970;4.614;2022-10-22T10:53:59;7.47;;;1.85;;
17494;SDS011;8864;51.970;4.614;2022-10-22T10:56:43;6.82;;;2.15;;
17494;SDS011;8864;51.970;4.614;2022-10-22T11:17:05;4.15;;;1.67;;
17494;SDS011;8864;51.970;4.614;2022-10-22T11:19:58;7.65;;;1.92;;
17494;SDS011;8864;51.970;4.614;2022-10-22T11:22:30;7.25;;;1.73;;
17494;SDS011;8864;51.970;4.614;2022-10-22T11:25:02;6.57;;;1.77;;
17494;SDS011;8864;51.970;4.614;2022-10-22T11:34:03;7.32;;;1.73;;
17494;SDS011;8864;51.970;4.614;2022-10-22T11:36:49;18.52;;;2.55;;
17494;SDS011;8864;51.970;4.614;2022-10-22T11:39:33;17.65;;;2.20;;
17494;SDS011;8864;51.970;4.614;2022-10-22T11:48:33;13.98;;;2.08;;
17494;SDS011;8864;51.970;4.614;2022-10-22T11:57:54;11.25;;;1.98;;
17494;SDS011;8864;51.970;4.614;2022-10-22T12:00:45;8.52;;;2.08;;
17494;SDS011;8864;51.970;4.614;2022-10-22T12:03:23;4.53;;;1.30;;
17494;SDS011;8864;51.970;4.614;2022-10-22T12:06:20;8.10;;;1.70;;
17494;SDS011;8864;51.970;4.614;2022-10-22T12:08:52;11.30;;;1.50;;
17494;SDS011;8864;51.970;4.614;2022-10-22T12:17:19;12.98;;;2.15;;
17494;SDS011;8864;51.970;4.614;2022-10-22T12:22:57;8.05;;;2.15;;
17494;SDS011;8864;51.970;4.614;2022-10-22T12:45:21;8.43;;;1.92;;
17494;SDS011;8864;51.970;4.614;2022-10-22T12:48:42;11.90;;;1.95;;
17494;SDS011;8864;51.970;4.614;2022-10-22T12:51:21;20.40;;;2.53;;
17494;SDS011;8864;51.970;4.614;2022-10-22T12:53:49;9.43;;;1.73;;
17494;SDS011;8864;51.970;4.614;2022-10-22T12:56:50;8.00;;;1.80;;
17494;SDS011;8864;51.970;4.614;2022-10-22T12:59:29;14.02;;;2.00;;
17494;SDS011;8864;51.970;4.614;2022-10-22T13:10:17;14.73;;;1.95;;
17494;SDS011;8864;51.970;4.614;2022-10-22T13:12:53;9.85;;;2.40;;
17494;SDS011;8864;51.970;4.614;2022-10-22T13:19:02;12.02;;;1.67;;
17494;SDS011;8864;51.970;4.614;2022-10-22T13:21:32;8.90;;;2.05;;
17494;SDS011;8864;51.970;4.614;2022-10-22T13:24:18;16.35;;;2.30;;
17494;SDS011;8864;51.970;4.614;2022-10-22T13:35:12;13.15;;;2.13;;
17494;SDS011;8864;51.970;4.614;2022-10-22T13:40:38;14.95;;;1.90;;
17494;SDS011;8864;51.970;4.614;2022-10-22T13:43:19;7.78;;;1.70;;
17494;SDS011;8864;51.970;4.614;2022-10-22T13:46:08;7.43;;;1.65;;
17494;SDS011;8864;51.970;4.614;2022-10-22T13:51:36;11.18;;;1.98;;
17494;SDS011;8864;51.970;4.614;2022-10-22T13:54:05;7.25;;;1.67;;
17494;SDS011;8864;51.970;4.614;2022-10-22T13:56:45;11.65;;;1.85;;
17494;SDS011;8864;51.970;4.614;2022-10-22T13:59:12;11.02;;;2.17;;
17494;SDS011;8864;51.970;4.614;2022-10-22T14:01:41;9.35;;;1.92;;
17494;SDS011;8864;51.970;4.614;2022-10-22T14:04:14;18.50;;;2.05;;
17494;SDS011;8864;51.970;4.614;2022-10-22T14:06:41;15.73;;;2.33;;
17494;SDS011;8864;51.970;4.614;2022-10-22T14:09:13;15.57;;;2.10;;
17494;SDS011;8864;51.970;4.614;2022-10-22T14:14:11;14.23;;;3.03;;
17494;SDS011;8864;51.970;4.614;2022-10-22T14:16:41;16.10;;;2.20;;
17494;SDS011;8864;51.970;4.614;2022-10-22T14:19:13;18.10;;;3.03;;
17494;SDS011;8864;51.970;4.614;2022-10-22T14:21:49;52.75;;;3.75;;
17494;SDS011;8864;51.970;4.614;2022-10-22T14:24:17;17.55;;;2.35;;
17494;SDS011;8864;51.970;4.614;2022-10-22T14:26:45;9.75;;;2.20;;
17494;SDS011;8864;51.970;4.614;2022-10-22T14:29:13;15.63;;;2.60;;
17494;SDS011;8864;51.970;4.614;2022-10-22T14:35:24;14.80;;;2.50;;
17494;SDS011;8864;51.970;4.614;2022-10-22T14:37:54;8.75;;;1.90;;
17494;SDS011;8864;51.970;4.614;2022-10-22T14:40:22;16.67;;;2.47;;
17494;SDS011;8864;51.970;4.614;2022-10-22T14:42:51;9.50;;;2.88;;
17494;SDS011;8864;51.970;4.614;2022-10-22T14:45:25;13.55;;;3.22;;
17494;SDS011;8864;51.970;4.614;2022-10-22T14:47:52;13.70;;;3.20;;
17494;SDS011;8864;51.970;4.614;2022-10-22T14:50:20;10.88;;;3.22;;
17494;SDS011;8864;51.970;4.614;2022-10-22T14:52:47;13.00;;;3.30;;
17494;SDS011;8864;51.970;4.614;2022-10-22T14:55:14;16.27;;;3.55;;
17494;SDS011;8864;51.970;4.614;2022-10-22T14:57:42;13.60;;;3.13;;
17494;SDS011;8864;51.970;4.614;2022-10-22T15:00:28;13.38;;;3.05;;
17494;SDS011;8864;51.970;4.614;2022-10-22T15:02:55;12.07;;;2.90;;
17494;SDS011;8864;51.970;4.614;2022-10-22T15:05:23;12.65;;;2.88;;
17494;SDS011;8864;51.970;4.614;2022-10-22T15:07:50;13.43;;;3.10;;
17494;SDS011;8864;51.970;4.614;2022-10-22T15:10:17;14.13;;;2.38;;
17494;SDS011;8864;51.970;4.614;2022-10-22T15:12:44;12.80;;;2.40;;
17494;SDS011;8864;51.970;4.614;2022-10-22T15:15:11;11.38;;;2.58;;
17494;SDS011;8864;51.970;4.614;2022-10-22T15:17:39;14.02;;;2.88;;
17494;SDS011;8864;51.970;4.614;2022-10-22T15:20:06;10.95;;;2.40;;
17494;SDS011;8864;51.970;4.614;2022-10-22T15:22:33;13.90;;;1.92;;
17494;SDS011;8864;51.970;4.614;2022-10-22T15:25:00;9.70;;;2.42;;
17494;SDS011;8864;51.970;4.614;2022-10-22T15:27:31;8.68;;;1.90;;
17494;SDS011;8864;51.970;4.614;2022-10-22T15:29:58;14.40;;;2.47;;
17494;SDS011;8864;51.970;4.614;2022-10-22T15:32:27;14.57;;;2.70;;
17494;SDS011;8864;51.970;4.614;2022-10-22T15:34:57;10.55;;;2.03;;
17494;SDS011;8864;51.970;4.614;2022-10-22T15:37:25;9.02;;;2.20;;
17494;SDS011;8864;51.970;4.614;2022-10-22T15:39:52;10.13;;;2.28;;
17494;SDS011;8864;51.970;4.614;2022-10-22T15:42:19;9.70;;;2.33;;
17494;SDS011;8864;51.970;4.614;2022-10-22T15:44:47;12.07;;;2.00;;
17494;SDS011;8864;51.970;4.614;2022-10-22T15:47:14;8.20;;;2.03;;
17494;SDS011;8864;51.970;4.614;2022-10-22T15:49:40;15.00;;;2.20;;
17494;SDS011;8864;51.970;4.614;2022-10-22T15:52:09;10.80;;;1.85;;
17494;SDS011;8864;51.970;4.614;2022-10-22T15:54:36;9.52;;;2.30;;
17494;SDS011;8864;51.970;4.614;2022-10-22T15:57:06;11.73;;;2.05;;
17494;SDS011;8864;51.970;4.614;2022-10-22T15:59:35;11.05;;;2.10;;
17494;SDS011;8864;51.970;4.614;2022-10-22T16:02:02;11.10;;;2.10;;
17494;SDS011;8864;51.970;4.614;2022-10-22T16:04:29;8.65;;;1.70;;
17494;SDS011;8864;51.970;4.614;2022-10-22T16:06:56;10.82;;;2.03;;
17494;SDS011;8864;51.970;4.614;2022-10-22T16:09:25;11.93;;;2.10;;
17494;SDS011;8864;51.970;4.614;2022-10-22T16:11:53;9.32;;;1.70;;
17494;SDS011;8864;51.970;4.614;2022-10-22T16:14:21;9.45;;;2.13;;
17494;SDS011;8864;51.970;4.614;2022-10-22T16:16:49;9.95;;;2.05;;
17494;SDS011;8864;51.970;4.614;2022-10-22T16:19:18;11.40;;;2.20;;
17494;SDS011;8864;51.970;4.614;2022-10-22T16:21:47;6.55;;;1.58;;
17494;SDS011;8864;51.970;4.614;2022-10-22T16:24:15;7.88;;;2.08;;
17494;SDS011;8864;51.970;4.614;2022-10-22T16:26:44;6.15;;;1.70;;
17494;SDS011;8864;51.970;4.614;2022-10-22T16:29:11;7.45;;;1.63;;
17494;SDS011;8864;51.970;4.614;2022-10-22T16:31:38;5.85;;;1.63;;
17494;SDS011;8864;51.970;4.614;2022-10-22T16:34:07;8.18;;;1.70;;
17494;SDS011;8864;51.970;4.614;2022-10-22T16:36:34;6.65;;;1.75;;
17494;SDS011;8864;51.970;4.614;2022-10-22T16:39:02;9.35;;;1.85;;
17494;SDS011;8864;51.970;4.614;2022-10-22T16:41:30;6.43;;;1.85;;
17494;SDS011;8864;51.970;4.614;2022-10-22T16:44:02;10.32;;;2.05;;
17494;SDS011;8864;51.970;4.614;2022-10-22T16:46:31;6.65;;;1.98;;
17494;SDS011;8864;51.970;4.614;2022-10-22T16:49:00;8.75;;;2.08;;
17494;SDS011;8864;51.970;4.614;2022-10-22T16:51:34;7.43;;;2.05;;
17494;SDS011;8864;51.970;4.614;2022-10-22T16:54:01;4.70;;;1.70;;
17494;SDS011;8864;51.970;4.614;2022-10-22T16:56:33;6.18;;;1.90;;
17494;SDS011;8864;51.970;4.614;2022-10-22T16:59:02;8.15;;;2.08;;
17494;SDS011;8864;51.970;4.614;2022-10-22T17:01:28;5.05;;;2.10;;
17494;SDS011;8864;51.970;4.614;2022-10-22T17:03:57;8.27;;;1.92;;
17494;SDS011;8864;51.970;4.614;2022-10-22T17:06:25;8.80;;;2.17;;
17494;SDS011;8864;51.970;4.614;2022-10-22T17:08:54;9.75;;;2.00;;
17494;SDS011;8864;51.970;4.614;2022-10-22T17:11:22;8.05;;;2.30;;
17494;SDS011;8864;51.970;4.614;2022-10-22T17:13:50;7.30;;;2.30;;
17494;SDS011;8864;51.970;4.614;2022-10-22T17:16:20;6.47;;;1.95;;
17494;SDS011;8864;51.970;4.614;2022-10-22T17:18:48;8.70;;;2.40;;
17494;SDS011;8864;51.970;4.614;2022-10-22T17:21:15;12.18;;;2.42;;
17494;SDS011;8864;51.970;4.614;2022-10-22T17:23:50;8.55;;;2.13;;
17494;SDS011;8864;51.970;4.614;2022-10-22T17:26:20;8.60;;;2.08;;
17494;SDS011;8864;51.970;4.614;2022-10-22T17:28:47;9.93;;;2.60;;
17494;SDS011;8864;51.970;4.614;2022-10-22T17:31:16;8.57;;;2.35;;
17494;SDS011;8864;51.970;4.614;2022-10-22T17:33:45;7.68;;;2.13;;
17494;SDS011;8864;51.970;4.614;2022-10-22T17:36:13;8.60;;;2.22;;
17494;SDS011;8864;51.970;4.614;2022-10-22T17:38:48;10.65;;;2.60;;
17494;SDS011;8864;51.970;4.614;2022-10-22T17:41:17;7.75;;;2.45;;
17494;SDS011;8864;51.970;4.614;2022-10-22T17:43:45;8.25;;;2.15;;
17494;SDS011;8864;51.970;4.614;2022-10-22T17:46:16;8.10;;;3.00;;
17494;SDS011;8864;51.970;4.614;2022-10-22T17:48:58;9.93;;;2.65;;
17494;SDS011;8864;51.970;4.614;2022-10-22T17:51:27;8.60;;;2.35;;
17494;SDS011;8864;51.970;4.614;2022-10-22T17:53:55;6.50;;;2.15;;
17494;SDS011;8864;51.970;4.614;2022-10-22T17:56:23;12.07;;;2.60;;
17494;SDS011;8864;51.970;4.614;2022-10-22T17:58:51;7.57;;;2.33;;
17494;SDS011;8864;51.970;4.614;2022-10-22T18:01:22;8.40;;;2.95;;
17494;SDS011;8864;51.970;4.614;2022-10-22T18:03:52;5.45;;;2.42;;
17494;SDS011;8864;51.970;4.614;2022-10-22T18:06:24;9.50;;;2.75;;
17494;SDS011;8864;51.970;4.614;2022-10-22T18:08:51;9.55;;;2.40;;
17494;SDS011;8864;51.970;4.614;2022-10-22T18:11:19;9.77;;;2.85;;
17494;SDS011;8864;51.970;4.614;2022-10-22T18:13:48;11.57;;;2.58;;
17494;SDS011;8864;51.970;4.614;2022-10-22T18:16:15;7.07;;;2.70;;
17494;SDS011;8864;51.970;4.614;2022-10-22T18:18:43;8.90;;;3.08;;
17494;SDS011;8864;51.970;4.614;2022-10-22T18:21:12;13.07;;;3.38;;
17494;SDS011;8864;51.970;4.614;2022-10-22T18:23:39;7.25;;;2.53;;
17494;SDS011;8864;51.970;4.614;2022-10-22T18:26:06;10.32;;;3.38;;
17494;SDS011;8864;51.970;4.614;2022-10-22T18:28:35;7.40;;;2.72;;
17494;SDS011;8864;51.970;4.614;2022-10-22T18:31:03;8.38;;;2.65;;
17494;SDS011;8864;51.970;4.614;2022-10-22T18:33:32;7.00;;;3.10;;
17494;SDS011;8864;51.970;4.614;2022-10-22T18:36:02;10.15;;;2.92;;
17494;SDS011;8864;51.970;4.614;2022-10-22T18:38:31;9.45;;;3.00;;
17494;SDS011;8864;51.970;4.614;2022-10-22T18:40:58;9.27;;;3.22;;